Mountain Home, Idaho
Current Conditions -  °F | °C
As of 5:48 AM on Sunday 21 Dec 2014 (Local Time) from KMUO Reporting Station
Overcast Overcast  
Wind Chill: 37°   Ceiling: 4900
Heat Index: 41°   Visibility: 10mi
Dew Point: 41°   Wind: 6mph
Humidity: 100%   Direction: 120°ESE
Pressure: 29.85"   Gusts: NA
Location:  43.13°N, 115.69°W
Report Text: KMUO 211248Z AUTO 12005KT 10SM OVC049 05/05 A2985 RMK AO2 RAE35
Loading
Personal Weather Stations






























Interactive Weather Map New forecast layout! Learn more

10-Day Weather Forecast

Advertisements
Track Severe Weather on mobile